Time;durP1;ratioP1;P1;durP2;ratioP2;P2;SDS_P1;SDS_P2;PMS_P1;PMS_P2;Temp;Humidity;BMP_temperature;BMP_pressure;BME280_temperature;BME280_humidity;BME280_pressure;Samples;Min_cycle;Max_cycle;Signal;HPM_P1;HPM_P2
2023/05/11 00:02:20;;;;;;;;;;;;;;;11.30;96.98;95355.50;5077188;28;1037;-53
2023/05/11 00:04:46;;;;;;;;;;;;;;;11.27;97.22;95353.16;5077178;28;1122;-53
2023/05/11 00:07:12;;;;;;;;;;;;;;;11.21;96.57;95351.09;5077067;28;1909;-53
2023/05/11 00:09:40;;;;;;;;;;;;;;;11.09;96.85;95343.34;5077003;28;1061;-53
2023/05/11 00:12:06;;;;;;;;;;;;;;;11.06;97.74;95362.41;5076934;28;1973;-53
2023/05/11 00:14:32;;;;;;;;;;;;;;;11.15;97.93;95355.25;5077013;28;973;-53
2023/05/11 00:16:58;;;;;;;;;;;;;;;11.25;96.57;95360.47;5076792;28;1089;-53
2023/05/11 00:19:24;;;;;;;;;;;;;;;11.32;96.56;95353.50;5076919;28;1213;-53
2023/05/11 00:21:50;;;;;;;;;;;;;;;11.35;96.66;95355.84;5077113;28;997;-53
2023/05/11 00:24:16;;;;;;;;;;;;;;;11.34;96.34;95351.50;5076896;28;978;-53
2023/05/11 00:26:42;;;;;;;;;;;;;;;11.35;96.29;95347.00;5076689;28;1029;-53
2023/05/11 00:29:08;;;;;;;;;;;;;;;11.32;96.23;95349.00;5076461;28;1939;-53
2023/05/11 00:31:34;;;;;;;;;;;;;;;11.33;96.54;95349.81;5076793;28;974;-53
2023/05/11 00:34:00;;;;;;;;;;;;;;;11.32;96.30;95348.13;5076567;28;1001;-53
2023/05/11 00:36:26;;;;;;;;;;;;;;;11.34;96.50;95354.16;5076330;28;1213;-53
2023/05/11 00:38:52;;;;;;;;;;;;;;;11.41;95.84;95347.19;5076793;28;969;-53
2023/05/11 00:41:18;;;;;;;;;;;;;;;11.40;95.65;95344.66;5076298;28;1029;-53
2023/05/11 00:43:45;;;;;;;;;;;;;;;11.38;95.23;95338.63;5076301;28;1081;-53
2023/05/11 00:46:11;;;;;;;;;;;;;;;11.36;95.21;95344.13;5076203;28;1052;-53
2023/05/11 00:48:37;;;;;;;;;;;;;;;11.37;95.08;95342.31;5076357;28;2056;-53
2023/05/11 00:51:04;;;;;;;;;;;;;;;11.30;96.33;95339.44;5076116;28;1128;-53
2023/05/11 00:53:30;;;;;;;;;;;;;;;11.14;97.55;95343.72;5076136;28;1037;-53
2023/05/11 00:55:57;;;;;;;;;;;;;;;11.08;96.50;95341.69;5076159;28;1060;-53
2023/05/11 00:58:24;;;;;;;;;;;;;;;10.90;97.23;95347.09;5075980;28;1063;-53
2023/05/11 01:00:50;;;;;;;;;;;;;;;11.01;96.91;95337.97;5076192;28;977;-53
2023/05/11 01:03:16;;;;;;;;;;;;;;;11.09;96.69;95335.31;5075777;28;1097;-53
2023/05/11 01:05:46;;;;;;;;;;;;;;;11.18;96.05;95333.53;5075932;28;1124;-53
2023/05/11 01:08:21;;;;;;;;;;;;;;;11.22;96.39;95337.56;5075698;28;1991;-53
2023/05/11 01:10:50;;;;;;;;;;;;;;;11.17;96.60;95339.03;5076057;28;1009;-53
2023/05/11 01:13:22;;;;;;;;;;;;;;;11.22;96.58;95336.72;5074979;28;1034;-53
2023/05/11 01:15:55;;;;;;;;;;;;;;;11.28;95.96;95333.41;5075727;28;1029;-53
2023/05/11 01:18:34;;;;;;;;;;;;;;;11.30;95.20;95331.41;5075647;28;981;-53
2023/05/11 01:21:01;;;;;;;;;;;;;;;11.16;97.12;95340.06;5075784;28;1027;-53
2023/05/11 01:23:46;;;;;;;;;;;;;;;11.03;97.96;95337.81;5075475;28;942;-53
2023/05/11 01:26:26;;;;;;;;;;;;;;;10.96;98.53;95339.44;5075714;28;961;-53
2023/05/11 01:28:55;;;;;;;;;;;;;;;11.07;98.13;95339.16;5075443;28;1973;-53
2023/05/11 01:31:23;;;;;;;;;;;;;;;11.07;97.56;95337.31;5075365;28;1155;-53
2023/05/11 01:34:03;;;;;;;;;;;;;;;10.96;97.56;95336.75;5075586;28;1064;-53
2023/05/11 01:36:33;;;;;;;;;;;;;;;10.96;97.89;95340.25;5075217;28;1271;-53
2023/05/11 01:39:02;;;;;;;;;;;;;;;10.95;97.49;95346.63;5075396;28;1053;-53
2023/05/11 01:41:30;;;;;;;;;;;;;;;11.05;97.50;95339.31;5075441;28;1016;-53
2023/05/11 01:43:59;;;;;;;;;;;;;;;11.10;96.82;95337.00;5075295;28;1037;-52
2023/05/11 01:46:28;;;;;;;;;;;;;;;11.13;96.45;95333.16;5075053;28;966;-53
2023/05/11 01:48:55;;;;;;;;;;;;;;;11.15;95.09;95339.19;5075248;28;1917;-53
2023/05/11 01:51:23;;;;;;;;;;;;;;;11.17;95.95;95339.03;5075221;28;1032;-53
2023/05/11 01:53:50;;;;;;;;;;;;;;;11.10;95.76;95337.00;5075153;28;1033;-53
2023/05/11 01:56:18;;;;;;;;;;;;;;;11.12;95.16;95340.34;5075148;28;1037;-53
2023/05/11 01:58:45;;;;;;;;;;;;;;;11.06;96.49;95338.34;5074897;28;1977;-53
2023/05/11 02:01:13;;;;;;;;;;;;;;;11.07;95.87;95334.63;5075061;28;973;-53
2023/05/11 02:03:40;;;;;;;;;;;;;;;11.00;96.92;95338.13;5074898;28;954;-53
2023/05/11 02:06:06;;;;;;;;;;;;;;;11.01;97.32;95329.09;5074754;28;1030;-52
2023/05/11 02:08:33;;;;;;;;;;;;;;;11.01;96.53;95327.25;5074558;28;1985;-53
2023/05/11 02:11:01;;;;;;;;;;;;;;;11.08;95.90;95336.34;5074780;28;1005;-53
2023/05/11 02:13:28;;;;;;;;;;;;;;;11.09;95.74;95338.00;5074558;28;969;-52
2023/05/11 02:15:55;;;;;;;;;;;;;;;11.08;95.94;95325.63;5074503;28;1124;-53
2023/05/11 02:18:21;;;;;;;;;;;;;;;11.10;95.51;95326.31;5074623;28;968;-53
2023/05/11 02:20:48;;;;;;;;;;;;;;;11.02;95.71;95331.63;5074468;28;1966;-53
2023/05/11 02:23:16;;;;;;;;;;;;;;;10.97;95.61;95325.06;5074451;28;1065;-53
2023/05/11 02:25:42;;;;;;;;;;;;;;;10.94;95.76;95334.25;5074358;28;1053;-53
2023/05/11 02:28:08;;;;;;;;;;;;;;;10.85;96.23;95328.03;5074206;28;1906;-53
2023/05/11 02:30:38;;;;;;;;;;;;;;;10.96;96.16;95329.56;5056412;28;1273;-53
2023/05/11 02:33:05;;;;;;;;;;;;;;;11.12;95.18;95326.16;5074087;28;1829;-53
2023/05/11 02:35:33;;;;;;;;;;;;;;;11.24;94.36;95332.06;5073999;28;1134;-53
2023/05/11 02:38:00;;;;;;;;;;;;;;;11.22;94.22;95332.22;5074024;28;1205;-53
2023/05/11 02:40:28;;;;;;;;;;;;;;;11.13;94.53;95326.00;5074036;28;1002;-53
2023/05/11 02:42:57;;;;;;;;;;;;;;;11.02;94.81;95320.06;5074015;28;1036;-53
2023/05/11 02:45:24;;;;;;;;;;;;;;;11.07;95.25;95321.25;5073842;28;1577;-53
2023/05/11 02:47:54;;;;;;;;;;;;;;;11.14;95.07;95324.16;5073800;28;2002;-52
2023/05/11 02:50:23;;;;;;;;;;;;;;;11.24;94.06;95321.34;5073997;28;1032;-53
2023/05/11 02:52:49;;;;;;;;;;;;;;;11.29;93.28;95316.34;5073903;28;1013;-53
2023/05/11 02:55:17;;;;;;;;;;;;;;;11.16;92.94;95324.81;5073997;28;1230;-53
2023/05/11 02:57:45;;;;;;;;;;;;;;;11.11;93.09;95324.47;5074085;28;1005;-53
2023/05/11 03:00:11;;;;;;;;;;;;;;;11.05;94.05;95317.06;5073619;28;1277;-53
2023/05/11 03:02:37;;;;;;;;;;;;;;;11.03;94.73;95319.06;5074001;28;1341;-53
2023/05/11 03:05:03;;;;;;;;;;;;;;;11.08;94.83;95325.63;5073745;28;1064;-53
2023/05/11 03:07:30;;;;;;;;;;;;;;;10.99;94.66;95323.91;5073527;28;1910;-53
2023/05/11 03:09:56;;;;;;;;;;;;;;;11.00;94.62;95316.72;5073815;28;1050;-53
2023/05/11 03:12:22;;;;;;;;;;;;;;;11.00;94.18;95325.56;5073840;28;1028;-53
2023/05/11 03:14:49;;;;;;;;;;;;;;;11.07;94.32;95323.09;5073553;28;1061;-53
2023/05/11 03:17:17;;;;;;;;;;;;;;;10.98;93.42;95326.75;5073631;28;1051;-53
2023/05/11 03:19:44;;;;;;;;;;;;;;;10.99;94.45;95323.91;5073778;28;970;-53
2023/05/11 03:22:10;;;;;;;;;;;;;;;10.92;93.81;95328.22;5073474;28;1024;-53
2023/05/11 03:24:37;;;;;;;;;;;;;;;10.93;94.16;95327.22;5073636;28;1005;-53
2023/05/11 03:27:04;;;;;;;;;;;;;;;10.98;93.80;95332.09;5073695;28;1030;-53
2023/05/11 03:29:31;;;;;;;;;;;;;;;10.99;93.76;95329.25;5073177;28;1905;-55
2023/05/11 03:31:57;;;;;;;;;;;;;;;10.94;93.06;95336.91;5073453;28;1032;-55
2023/05/11 03:34:23;;;;;;;;;;;;;;;10.97;93.37;95336.59;5072861;28;1050;-55
2023/05/11 03:36:49;;;;;;;;;;;;;;;11.01;93.15;95335.28;5073201;28;1158;-55
2023/05/11 03:39:16;;;;;;;;;;;;;;;11.02;91.86;95342.31;5073134;28;1100;-54
2023/05/11 03:41:43;;;;;;;;;;;;;;;11.01;91.88;95345.16;5073460;28;1045;-53
2023/05/11 03:44:10;;;;;;;;;;;;;;;11.08;90.03;95341.69;5073505;28;970;-53
2023/05/11 03:46:38;;;;;;;;;;;;;;;11.08;90.71;95346.22;5073231;28;1052;-53
2023/05/11 03:49:05;;;;;;;;;;;;;;;11.09;90.66;95347.88;5073365;28;1910;-53
2023/05/11 03:51:31;;;;;;;;;;;;;;;11.02;89.40;95353.03;5073239;28;1031;-53
2023/05/11 03:53:58;;;;;;;;;;;;;;;11.09;90.14;95345.19;5073123;28;1044;-55
2023/05/11 03:56:24;;;;;;;;;;;;;;;11.21;89.59;95346.59;5073007;28;1085;-55
2023/05/11 03:58:51;;;;;;;;;;;;;;;11.21;88.19;95343.06;5073073;28;1104;-54
2023/05/11 04:01:17;;;;;;;;;;;;;;;11.21;87.55;95348.41;5073161;28;1056;-55
2023/05/11 04:03:48;;;;;;;;;;;;;;;11.20;89.32;95350.25;5073281;28;1034;-55
2023/05/11 04:06:15;;;;;;;;;;;;;;;11.31;86.32;95346.47;5073037;28;1008;-55
2023/05/11 04:08:41;;;;;;;;;;;;;;;11.24;85.23;95353.47;5072881;28;1906;-54
2023/05/11 04:11:07;;;;;;;;;;;;;;;11.27;84.37;95355.84;5072944;28;1060;-54
2023/05/11 04:13:33;;;;;;;;;;;;;;;11.19;84.69;95358.44;5073191;28;1011;-54
2023/05/11 04:15:59;;;;;;;;;;;;;;;11.17;83.17;95352.41;5072786;28;1045;-55
2023/05/11 04:18:25;;;;;;;;;;;;;;;11.18;84.05;95346.09;5072931;28;1145;-54
2023/05/11 04:20:51;;;;;;;;;;;;;;;11.33;84.52;95361.38;5073160;28;1061;-55
2023/05/11 04:23:17;;;;;;;;;;;;;;;11.37;83.33;95364.56;5072750;28;1037;-55
2023/05/11 04:25:43;;;;;;;;;;;;;;;11.42;82.80;95361.38;5073081;28;965;-55
2023/05/11 04:28:09;;;;;;;;;;;;;;;11.47;83.42;95364.44;5072979;28;2064;-55
2023/05/11 04:30:35;;;;;;;;;;;;;;;11.36;81.60;95362.88;5072694;28;1124;-55
2023/05/11 04:33:02;;;;;;;;;;;;;;;11.37;83.46;95361.88;5073025;28;1028;-55
2023/05/11 04:35:28;;;;;;;;;;;;;;;11.41;82.30;95373.13;5072927;28;1067;-55
2023/05/11 04:37:54;;;;;;;;;;;;;;;11.49;81.86;95370.47;5072528;28;1211;-55
2023/05/11 04:40:20;;;;;;;;;;;;;;;11.47;82.11;95369.78;5072581;28;1091;-55
2023/05/11 04:42:46;;;;;;;;;;;;;;;11.40;83.23;95377.63;5072622;28;1057;-55
2023/05/11 04:45:12;;;;;;;;;;;;;;;11.39;81.35;95378.63;5072407;28;1081;-55
2023/05/11 04:47:38;;;;;;;;;;;;;;;11.23;81.21;95378.53;5074393;28;1902;-54
2023/05/11 04:50:05;;;;;;;;;;;;;;;11.20;83.14;95378.88;5076457;28;978;-54
2023/05/11 04:52:31;;;;;;;;;;;;;;;11.31;82.34;95384.78;5076284;28;974;-54
2023/05/11 04:54:57;;;;;;;;;;;;;;;11.40;82.46;95383.00;5076439;28;965;-55
2023/05/11 04:57:23;;;;;;;;;;;;;;;11.25;82.24;95389.91;5058577;28;1021;-55
2023/05/11 04:59:49;;;;;;;;;;;;;;;11.16;81.06;95393.56;5076252;28;973;-55
2023/05/11 05:02:15;;;;;;;;;;;;;;;11.09;83.90;95396.88;5075870;28;1273;-54
2023/05/11 05:04:41;;;;;;;;;;;;;;;11.07;82.50;95387.31;5075939;28;1057;-55
2023/05/11 05:07:08;;;;;;;;;;;;;;;11.15;83.27;95403.41;5041765;28;1544;-54
2023/05/11 05:09:34;;;;;;;;;;;;;;;11.18;84.14;95395.09;5075675;28;1973;-55
2023/05/11 05:12:00;;;;;;;;;;;;;;;11.21;83.31;95399.28;5076085;28;1021;-54
2023/05/11 05:14:26;;;;;;;;;;;;;;;11.30;83.48;95392.97;5075856;28;965;-55
2023/05/11 05:16:53;;;;;;;;;;;;;;;11.25;82.84;95406.84;5075996;28;1052;-55
2023/05/11 05:19:19;;;;;;;;;;;;;;;11.14;82.05;95407.94;5075586;28;1098;-55
2023/05/11 05:21:47;;;;;;;;;;;;;;;11.15;83.10;95411.44;5075403;28;1054;-55
2023/05/11 05:24:13;;;;;;;;;;;;;;;11.26;82.27;95410.34;5075397;28;958;-55
2023/05/11 05:26:39;;;;;;;;;;;;;;;11.30;82.53;95415.22;5075181;28;1040;-55
2023/05/11 05:29:05;;;;;;;;;;;;;;;11.29;81.79;95405.53;5075307;28;1910;-55
2023/05/11 05:31:31;;;;;;;;;;;;;;;11.41;82.04;95406.06;5074888;28;1017;-55
2023/05/11 05:33:58;;;;;;;;;;;;;;;11.53;82.07;95415.53;5075473;28;1012;-55
2023/05/11 05:36:24;;;;;;;;;;;;;;;11.59;81.04;95408.69;5075096;28;1325;-55
2023/05/11 05:38:50;;;;;;;;;;;;;;;11.66;80.31;95419.56;5075538;28;954;-55
2023/05/11 05:41:16;;;;;;;;;;;;;;;11.59;81.12;95413.19;5075080;28;1426;-54
2023/05/11 05:43:42;;;;;;;;;;;;;;;11.57;80.89;95421.38;5075138;28;1033;-54
2023/05/11 05:46:08;;;;;;;;;;;;;;;11.59;83.15;95415.84;5075277;28;996;-54
2023/05/11 05:48:34;;;;;;;;;;;;;;;11.78;82.08;95422.78;5074860;28;1979;-54
2023/05/11 05:51:00;;;;;;;;;;;;;;;11.94;81.45;95416.69;5074922;28;1035;-54
2023/05/11 05:53:26;;;;;;;;;;;;;;;11.77;80.71;95419.28;5074837;28;1104;-54
2023/05/11 05:55:52;;;;;;;;;;;;;;;11.82;80.91;95425.00;5074886;28;1038;-54
2023/05/11 05:58:18;;;;;;;;;;;;;;;11.75;80.52;95421.28;5074657;28;1292;-53
2023/05/11 06:00:44;;;;;;;;;;;;;;;11.81;80.62;95419.81;5074902;28;1041;-54
2023/05/11 06:03:10;;;;;;;;;;;;;;;11.68;80.32;95425.59;5074709;28;1038;-54
2023/05/11 06:05:36;;;;;;;;;;;;;;;11.75;80.34;95423.13;5074897;28;980;-54
2023/05/11 06:08:02;;;;;;;;;;;;;;;11.73;81.76;95426.81;5074608;28;1918;-54
2023/05/11 06:10:28;;;;;;;;;;;;;;;11.66;81.62;95430.28;5074485;28;1100;-54
2023/05/11 06:12:54;;;;;;;;;;;;;;;11.79;81.83;95429.84;5074767;28;1027;-55
2023/05/11 06:15:21;;;;;;;;;;;;;;;11.86;81.87;95433.56;5074714;28;1111;-55
2023/05/11 06:17:48;;;;;;;;;;;;;;;11.94;80.56;95435.47;5074699;28;1062;-55
2023/05/11 06:20:15;;;;;;;;;;;;;;;11.89;81.34;95431.44;5056536;28;1116;-55
2023/05/11 06:22:42;;;;;;;;;;;;;;;12.01;82.21;95434.66;5056697;28;1046;-55
2023/05/11 06:25:08;;;;;;;;;;;;;;;11.80;80.39;95431.50;5056804;28;1056;-55
2023/05/11 06:27:34;;;;;;;;;;;;;;;11.63;80.95;95433.28;5056605;28;2015;-54
2023/05/11 06:30:00;;;;;;;;;;;;;;;11.60;81.26;95426.41;5074053;28;1314;-55
2023/05/11 06:32:26;;;;;;;;;;;;;;;11.57;80.21;95415.19;5074428;28;982;-54
2023/05/11 06:34:52;;;;;;;;;;;;;;;11.71;82.09;95427.97;5056246;28;1234;-54
2023/05/11 06:37:19;;;;;;;;;;;;;;;11.82;79.81;95426.81;5073982;28;1259;-55
2023/05/11 06:39:46;;;;;;;;;;;;;;;11.96;81.58;95420.06;5073983;28;1113;-55
2023/05/11 06:42:12;;;;;;;;;;;;;;;11.94;79.56;95424.75;5074070;28;993;-55
2023/05/11 06:44:40;;;;;;;;;;;;;;;12.05;81.41;95419.06;5073854;28;1112;-54
2023/05/11 06:47:06;;;;;;;;;;;;;;;12.32;79.65;95431.34;5073988;28;1001;-54
2023/05/11 06:49:33;;;;;;;;;;;;;;;12.34;78.21;95428.50;5073605;28;1972;-54
2023/05/11 06:51:59;;;;;;;;;;;;;;;12.30;79.05;95426.16;5073766;28;1045;-54
2023/05/11 06:54:25;;;;;;;;;;;;;;;12.44;78.81;95430.03;5073974;28;1124;-54
2023/05/11 06:56:51;;;;;;;;;;;;;;;12.22;77.72;95430.69;5073692;28;1225;-54
2023/05/11 06:59:18;;;;;;;;;;;;;;;12.18;79.51;95435.53;5073841;28;973;-54
2023/05/11 07:01:44;;;;;;;;;;;;;;;12.18;79.92;95438.22;5073940;28;966;-54
2023/05/11 07:04:10;;;;;;;;;;;;;;;12.19;79.14;95437.19;5073411;28;1105;-54
2023/05/11 07:06:36;;;;;;;;;;;;;;;12.10;80.99;95438.16;5055848;28;1054;-54
2023/05/11 07:09:02;;;;;;;;;;;;;;;12.11;79.93;95442.53;5073471;28;1914;-54
2023/05/11 07:11:31;;;;;;;;;;;;;;;12.09;79.60;95437.34;5073089;28;1722;-54
2023/05/11 07:13:57;;;;;;;;;;;;;;;12.15;79.21;95435.84;5055794;28;1060;-54
2023/05/11 07:16:23;;;;;;;;;;;;;;;12.18;79.07;95435.53;5073666;28;1024;-54
2023/05/11 07:18:49;;;;;;;;;;;;;;;12.17;79.93;95433.84;5073401;28;1042;-54
2023/05/11 07:21:16;;;;;;;;;;;;;;;12.12;81.16;95433.47;5055780;28;966;-54
2023/05/11 07:23:43;;;;;;;;;;;;;;;12.13;80.63;95442.38;5073685;28;1064;-54
2023/05/11 07:26:09;;;;;;;;;;;;;;;12.11;81.60;95431.81;5073527;28;1056;-54
2023/05/11 07:28:35;;;;;;;;;;;;;;;12.06;80.71;95437.66;5073322;28;1906;-54
2023/05/11 07:31:01;;;;;;;;;;;;;;;12.05;81.52;95444.03;5073594;28;1055;-54
2023/05/11 07:36:49;;;;;;;;;;;;;;;12.15;82.00;95438.53;5073312;28;1189;-54
2023/05/11 07:39:15;;;;;;;;;;;;;;;12.15;81.54;95438.53;5073120;28;1117;-54
2023/05/11 07:41:43;;;;;;;;;;;;;;;12.19;81.92;95439.88;5073063;28;1012;-54
2023/05/11 07:44:09;;;;;;;;;;;;;;;12.42;82.02;95436.56;5073378;28;1044;-55
2023/05/11 07:46:35;;;;;;;;;;;;;;;12.59;80.67;95435.56;5073364;28;993;-55
2023/05/11 07:49:01;;;;;;;;;;;;;;;12.62;81.68;95434.41;5073262;28;1914;-55
2023/05/11 07:51:27;;;;;;;;;;;;;;;12.64;79.87;95445.81;5073067;28;1842;-55
2023/05/11 07:53:53;;;;;;;;;;;;;;;12.57;79.95;95440.25;5073134;28;985;-54
2023/05/11 07:56:19;;;;;;;;;;;;;;;12.45;80.60;95441.59;5073266;28;1054;-54
2023/05/11 07:58:45;;;;;;;;;;;;;;;12.49;82.35;95438.41;5072985;28;1045;-54
2023/05/11 08:01:11;;;;;;;;;;;;;;;12.64;80.59;95446.66;5055442;28;1056;-54
2023/05/11 08:03:37;;;;;;;;;;;;;;;12.64;82.16;95438.59;5073213;28;978;-54
2023/05/11 08:06:03;;;;;;;;;;;;;;;12.77;81.65;95437.28;5055131;28;1066;-54
2023/05/11 08:08:30;;;;;;;;;;;;;;;12.76;80.37;95435.59;5072784;28;1993;-54
2023/05/11 08:10:56;;;;;;;;;;;;;;;12.72;79.87;95436.94;5073226;28;938;-54
2023/05/11 08:13:22;;;;;;;;;;;;;;;12.74;81.78;95441.13;5072709;28;1096;-54
2023/05/11 08:15:48;;;;;;;;;;;;;;;12.79;80.49;95443.31;5055029;28;916;-54
2023/05/11 08:18:14;;;;;;;;;;;;;;;12.70;81.75;95443.28;5055026;28;1442;-54
2023/05/11 08:20:41;;;;;;;;;;;;;;;12.63;80.65;95442.28;5073363;28;1050;-54
2023/05/11 08:23:08;;;;;;;;;;;;;;;12.67;82.28;95448.16;5076645;28;1117;-54
2023/05/11 08:25:34;;;;;;;;;;;;;;;12.76;81.24;95446.31;5076562;28;1073;-55
2023/05/11 08:28:00;;;;;;;;;;;;;;;12.72;81.68;95444.97;5076392;28;1992;-55
2023/05/11 08:30:27;;;;;;;;;;;;;;;12.64;82.14;95443.13;5076492;28;1092;-54
2023/05/11 08:32:53;;;;;;;;;;;;;;;12.54;81.74;95439.75;5058918;28;1105;-55
2023/05/11 08:35:19;;;;;;;;;;;;;;;12.56;84.10;95448.47;5076324;28;2006;-54
2023/05/11 08:37:45;;;;;;;;;;;;;;;12.42;81.20;95436.56;5058593;28;1212;-53
2023/05/11 08:40:11;;;;;;;;;;;;;;;12.48;81.82;95438.56;5076335;28;1969;-54
2023/05/11 08:42:39;;;;;;;;;;;;;;;12.70;82.35;95437.94;5076145;28;1085;-54
2023/05/11 08:45:05;;;;;;;;;;;;;;;12.84;81.60;95430.22;5076520;28;1034;-54
2023/05/11 08:47:32;;;;;;;;;;;;;;;12.94;81.26;95430.91;5076334;28;1918;-54
2023/05/11 08:49:58;;;;;;;;;;;;;;;12.88;80.59;95424.34;5075859;28;1040;-54
2023/05/11 08:52:25;;;;;;;;;;;;;;;13.07;80.74;95431.22;5075807;28;1024;-54
2023/05/11 08:54:52;;;;;;;;;;;;;;;13.06;79.52;95434.91;5076057;28;1017;-54
2023/05/11 08:57:18;;;;;;;;;;;;;;;12.90;79.82;95424.19;5075821;28;1088;-54
2023/05/11 08:59:47;;;;;;;;;;;;;;;12.97;80.72;95424.34;5076176;28;1021;-54
2023/05/11 09:02:15;;;;;;;;;;;;;;;13.07;80.47;95420.47;5075946;28;1128;-54
2023/05/11 09:04:42;;;;;;;;;;;;;;;13.19;80.16;95423.63;5076115;28;1718;-54
2023/05/11 09:07:09;;;;;;;;;;;;;;;13.24;79.72;95412.38;5075851;28;1988;-54
2023/05/11 09:09:35;;;;;;;;;;;;;;;13.37;80.52;95414.56;5075705;28;1977;-54
2023/05/11 09:12:01;;;;;;;;;;;;;;;13.52;81.00;95406.63;5075630;28;1093;-54
2023/05/11 09:14:28;;;;;;;;;;;;;;;13.71;80.25;95408.91;5075903;28;1024;-54
2023/05/11 09:16:54;;;;;;;;;;;;;;;13.72;77.78;95410.59;5075791;28;957;-54
2023/05/11 09:19:20;;;;;;;;;;;;;;;13.70;79.24;95412.63;5075857;28;995;-54
2023/05/11 09:21:46;;;;;;;;;;;;;;;13.67;77.18;95416.47;5075689;28;985;-54
2023/05/11 09:24:12;;;;;;;;;;;;;;;13.67;78.50;95421.84;5075410;28;1857;-54
2023/05/11 09:26:39;;;;;;;;;;;;;;;13.87;79.84;95416.09;5075455;28;1854;-54
2023/05/11 09:29:05;;;;;;;;;;;;;;;13.87;77.59;95405.34;5075623;28;1906;-54
2023/05/11 09:31:45;;;;;;;;;;;;;;;13.97;78.67;95408.63;5075501;28;1063;-54
2023/05/11 09:34:11;;;;;;;;;;;;;;;13.91;77.37;95403.97;5074706;28;1036;-54
2023/05/11 09:36:37;;;;;;;;;;;;;;;13.98;78.80;95401.38;5075065;28;1374;-54
2023/05/11 09:39:03;;;;;;;;;;;;;;;14.27;77.62;95394.53;5075594;28;1024;-54
2023/05/11 09:41:30;;;;;;;;;;;;;;;14.52;77.03;95396.03;5075015;28;1089;-56
2023/05/11 09:44:07;;;;;;;;;;;;;;;14.73;75.49;95395.38;5075345;28;1025;-55
2023/05/11 09:46:34;;;;;;;;;;;;;;;14.73;75.17;95389.16;5075282;28;1052;-55
2023/05/11 09:49:00;;;;;;;;;;;;;;;14.56;73.92;95378.50;5075333;28;1910;-54
2023/05/11 09:51:32;;;;;;;;;;;;;;;14.58;73.27;95381.88;5075224;28;1016;-54
2023/05/11 09:53:59;;;;;;;;;;;;;;;14.50;73.31;95381.09;5075253;28;981;-54
2023/05/11 09:56:45;;;;;;;;;;;;;;;14.60;73.03;95373.63;5074884;28;994;-54
2023/05/11 09:59:12;;;;;;;;;;;;;;;15.05;72.40;95371.88;5075333;28;1079;-54
2023/05/11 10:01:38;;;;;;;;;;;;;;;15.51;72.15;95362.81;5074868;28;949;-54
2023/05/11 10:04:07;;;;;;;;;;;;;;;15.80;69.19;95372.75;5074721;28;961;-54
2023/05/11 10:06:42;;;;;;;;;;;;;;;15.47;69.60;95374.97;5074882;28;1049;-54
2023/05/11 10:09:08;;;;;;;;;;;;;;;15.15;71.79;95360.84;5074679;28;1906;-54
2023/05/11 10:11:34;;;;;;;;;;;;;;;15.16;71.61;95374.13;5074712;28;957;-54
2023/05/11 10:14:01;;;;;;;;;;;;;;;15.13;73.99;95363.72;5074539;28;1036;-54
2023/05/11 10:16:27;;;;;;;;;;;;;;;15.00;71.11;95360.81;5074309;28;1046;-54
2023/05/11 10:18:53;;;;;;;;;;;;;;;14.89;72.21;95361.25;5074803;28;1037;-54
2023/05/11 10:21:19;;;;;;;;;;;;;;;14.76;72.63;95364.56;5074513;28;1044;-54
2023/05/11 10:23:46;;;;;;;;;;;;;;;14.57;73.89;95356.00;5074512;28;971;-54
2023/05/11 10:26:13;;;;;;;;;;;;;;;14.51;73.74;95364.75;5074211;28;1046;-54
2023/05/11 10:28:39;;;;;;;;;;;;;;;14.35;72.92;95368.41;5074131;28;1901;-54
2023/05/11 10:31:05;;;;;;;;;;;;;;;14.35;72.26;95356.81;5074181;28;1041;-54
2023/05/11 10:33:32;;;;;;;;;;;;;;;14.22;73.12;95365.47;5074003;28;1049;-54
2023/05/11 10:35:58;;;;;;;;;;;;;;;14.36;72.69;95361.16;5073839;28;1343;-55
2023/05/11 10:38:24;;;;;;;;;;;;;;;14.38;74.37;95361.81;5074333;28;1021;-54
2023/05/11 10:40:51;;;;;;;;;;;;;;;14.19;72.77;95363.97;5074169;28;1025;-54
2023/05/11 10:43:20;;;;;;;;;;;;;;;14.13;73.43;95358.47;5074047;28;1045;-54
2023/05/11 10:46:00;;;;;;;;;;;;;;;14.23;74.13;95362.59;5073177;28;970;-54
2023/05/11 10:48:44;;;;;;;;;;;;;;;14.21;73.32;95364.63;5073963;28;1975;-54
2023/05/11 10:51:13;;;;;;;;;;;;;;;14.44;72.65;95366.50;5073890;28;1078;-54
2023/05/11 10:53:42;;;;;;;;;;;;;;;14.40;72.87;95362.50;5073843;28;1038;-54
2023/05/11 10:56:17;;;;;;;;;;;;;;;14.50;72.58;95357.69;5073579;28;1013;-54
2023/05/11 10:59:02;;;;;;;;;;;;;;;14.34;71.38;95352.44;5073901;28;961;-54
2023/05/11 11:01:38;;;;;;;;;;;;;;;14.38;73.08;95356.44;5073746;28;1059;-54
2023/05/11 11:04:08;;;;;;;;;;;;;;;14.44;71.91;95353.03;5074000;28;998;-54
2023/05/11 11:06:35;;;;;;;;;;;;;;;14.47;73.22;95352.66;5073376;28;1026;-54
2023/05/11 11:09:03;;;;;;;;;;;;;;;14.38;70.88;95357.28;5073460;28;1977;-54
2023/05/11 11:11:29;;;;;;;;;;;;;;;14.62;72.26;95358.97;5055766;28;958;-54
2023/05/11 11:13:56;;;;;;;;;;;;;;;14.73;70.70;95356.88;5073631;28;1060;-54
2023/05/11 11:16:24;;;;;;;;;;;;;;;14.74;71.59;95355.84;5073455;28;1093;-54
2023/05/11 11:18:49;;;;;;;;;;;;;;;14.64;71.09;95354.25;5073451;28;1041;-54
2023/05/11 11:21:36;;;;;;;;;;;;;;;14.59;70.33;95350.44;5073500;28;1040;-54
2023/05/11 11:24:02;;;;;;;;;;;;;;;14.59;72.04;95351.28;5073303;28;993;-54
2023/05/11 11:26:47;;;;;;;;;;;;;;;14.72;71.97;95360.56;5073456;28;1148;-53
2023/05/11 11:29:14;;;;;;;;;;;;;;;14.73;70.60;95346.94;5073315;28;1886;-55
2023/05/11 11:31:40;;;;;;;;;;;;;;;14.72;70.15;95355.19;5073500;28;1028;-54
2023/05/11 11:34:38;;;;;;;;;;;;;;;14.52;70.04;95350.28;5073222;28;1024;-55
2023/05/11 11:37:07;;;;;;;;;;;;;;;14.59;71.53;95342.38;5039750;28;1634;-55
2023/05/11 11:39:42;;;;;;;;;;;;;;;14.70;71.50;95343.78;5073053;28;1489;-55
2023/05/11 11:42:09;;;;;;;;;;;;;;;14.65;73.13;95344.31;5073097;28;1404;-55
2023/05/11 11:44:35;;;;;;;;;;;;;;;14.79;71.48;95343.50;5073189;28;1068;-55
2023/05/11 11:47:15;;;;;;;;;;;;;;;14.88;72.84;95340.75;5073011;28;1034;-55
2023/05/11 11:49:42;;;;;;;;;;;;;;;14.77;71.52;95340.16;5072898;28;1961;-55
2023/05/11 11:52:11;;;;;;;;;;;;;;;14.71;70.29;95342.78;5073052;28;1562;-55
2023/05/11 11:54:43;;;;;;;;;;;;;;;14.49;71.05;95339.88;5073196;28;954;-55
2023/05/11 11:57:28;;;;;;;;;;;;;;;14.56;72.58;95337.31;5075969;28;1037;-55
2023/05/11 11:59:54;;;;;;;;;;;;;;;14.54;71.86;95333.97;5077466;28;1024;-55
2023/05/11 12:02:22;;;;;;;;;;;;;;;14.50;72.93;95329.97;5076953;28;1172;-55
2023/05/11 12:04:55;;;;;;;;;;;;;;;14.69;72.67;95334.03;5077285;28;1069;-55
2023/05/11 12:07:23;;;;;;;;;;;;;;;14.69;71.42;95328.66;5076878;28;957;-55
2023/05/11 12:09:51;;;;;;;;;;;;;;;14.74;71.25;95332.47;5059384;28;1906;-55
2023/05/11 12:12:18;;;;;;;;;;;;;;;14.86;71.45;95324.78;5076819;28;1081;-55
2023/05/11 12:14:47;;;;;;;;;;;;;;;14.89;73.21;95328.97;5076835;28;1085;-55
2023/05/11 12:17:15;;;;;;;;;;;;;;;14.85;71.71;95323.09;5076804;28;955;-55
2023/05/11 12:19:42;;;;;;;;;;;;;;;14.94;72.76;95321.19;5076823;28;1012;-55
2023/05/11 12:22:09;;;;;;;;;;;;;;;15.09;71.15;95321.19;5076662;28;1073;-55
2023/05/11 12:24:37;;;;;;;;;;;;;;;15.06;71.24;95313.47;5076947;28;1097;-55
2023/05/11 12:27:03;;;;;;;;;;;;;;;14.89;70.51;95319.06;5076588;28;1248;-55
2023/05/11 12:29:30;;;;;;;;;;;;;;;14.90;70.83;95314.50;5076502;28;1997;-55
2023/05/11 12:31:56;;;;;;;;;;;;;;;14.89;70.97;95308.28;5058810;28;974;-55
2023/05/11 12:34:22;;;;;;;;;;;;;;;14.92;70.85;95313.28;5076613;28;1238;-55
2023/05/11 12:36:50;;;;;;;;;;;;;;;14.85;70.61;95323.09;5076302;28;1201;-55
2023/05/11 12:39:21;;;;;;;;;;;;;;;14.88;70.60;95309.28;5058701;28;1135;-55
2023/05/11 12:41:48;;;;;;;;;;;;;;;15.18;71.39;95310.13;5076194;28;1042;-55
2023/05/11 12:44:15;;;;;;;;;;;;;;;15.42;70.02;95308.16;5058783;28;989;-55
2023/05/11 12:46:41;;;;;;;;;;;;;;;15.54;68.57;95305.84;5076159;28;1085;-55
2023/05/11 12:49:08;;;;;;;;;;;;;;;15.52;69.28;95297.94;5076252;28;1906;-55
2023/05/11 12:51:43;;;;;;;;;;;;;;;15.44;67.44;95289.94;5076288;28;942;-55
2023/05/11 12:54:09;;;;;;;;;;;;;;;15.27;67.80;95297.44;5076046;28;1030;-54
2023/05/11 12:56:45;;;;;;;;;;;;;;;15.13;69.17;95295.56;5076197;28;965;-54
2023/05/11 12:59:23;;;;;;;;;;;;;;;15.06;69.88;95294.63;5075878;28;1042;-54
2023/05/11 13:01:49;;;;;;;;;;;;;;;15.07;69.46;95288.22;5075872;28;969;-54
2023/05/11 13:04:15;;;;;;;;;;;;;;;15.10;69.38;95293.22;5076049;28;1060;-55